Time;durP1;ratioP1;P1;durP2;ratioP2;P2;SDS_P1;SDS_P2;PMS_P1;PMS_P2;Temp;Humidity;BMP_temperature;BMP_pressure;BME280_temperature;BME280_humidity;BME280_pressure;Samples;Min_cycle;Max_cycle;Signal;HPM_P1;HPM_P2
2021/12/16 00:08:55;;;;;;;60.47;21.25;;;;;;;;;;5080688;28;20415;-61
2021/12/16 00:19:30;;;;;;;65.05;22.08;;;;;;;;;;5078173;28;20044;-61
2021/12/16 00:33:19;;;;;;;58.78;19.88;;;;;;;;;;5079103;28;20137;-61
2021/12/16 00:35:48;;;;;;;49.20;19.38;;;;;;;;;;5081576;28;20048;-61
2021/12/16 00:38:15;;;;;;;63.03;20.73;;;;;;;;;;5079125;28;20140;-61
2021/12/16 00:40:42;;;;;;;60.10;20.02;;;;;;;;;;5082800;28;20498;-61
2021/12/16 00:43:16;;;;;;;40.20;19.30;;;;;;;;;;5084390;28;20124;-61
2021/12/16 00:45:59;;;;;;;43.45;18.20;;;;;;;;;;5080092;28;20066;-61
2021/12/16 00:48:48;;;;;;;64.13;18.83;;;;;;;;;;5073411;28;20052;-61
2021/12/16 00:54:10;;;;;;;51.35;17.55;;;;;;;;;;5075149;28;20128;-61
2021/12/16 00:56:37;;;;;;;50.78;16.23;;;;;;;;;;5082637;28;20056;-61
2021/12/16 00:59:07;;;;;;;46.85;15.02;;;;;;;;;;5086743;28;20396;-61
2021/12/16 01:04:16;;;;;;;45.83;13.77;;;;;;;;;;5088364;28;20079;-61
2021/12/16 01:33:40;;;;;;;40.13;9.13;;;;;;;;;;5081577;28;20438;-61
2021/12/16 01:37:52;;;;;;;36.80;7.43;;;;;;;;;;5080407;28;20106;-62
2021/12/16 01:40:19;;;;;;;25.83;8.68;;;;;;;;;;5086256;28;20121;-61
2021/12/16 01:50:24;;;;;;;25.92;6.90;;;;;;;;;;5081052;28;20064;-61
2021/12/16 01:53:14;;;;;;;28.35;7.65;;;;;;;;;;5082823;28;20056;-61
2021/12/16 01:55:48;;;;;;;29.73;6.32;;;;;;;;;;5075028;28;20044;-61
2021/12/16 01:58:19;;;;;;;25.02;6.38;;;;;;;;;;5077236;28;20039;-61
2021/12/16 02:00:56;;;;;;;27.52;5.47;;;;;;;;;;5083690;28;20063;-61
2021/12/16 02:03:28;;;;;;;27.63;6.03;;;;;;;;;;5086735;28;20175;-61
2021/12/16 02:06:07;;;;;;;26.73;7.43;;;;;;;;;;5086288;28;20040;-61
2021/12/16 02:08:37;;;;;;;27.65;6.85;;;;;;;;;;5082087;28;20040;-61
2021/12/16 02:11:19;;;;;;;29.85;7.28;;;;;;;;;;5077847;28;20048;-61
2021/12/16 02:27:23;;;;;;;31.65;6.53;;;;;;;;;;5084442;28;20092;-61
2021/12/16 02:33:10;;;;;;;26.65;6.10;;;;;;;;;;5081732;28;20107;-61
2021/12/16 02:35:45;;;;;;;28.02;6.22;;;;;;;;;;5081929;28;20040;-61
2021/12/16 02:38:14;;;;;;;26.05;5.20;;;;;;;;;;5079114;28;20445;-61
2021/12/16 02:40:41;;;;;;;25.10;5.78;;;;;;;;;;5086560;28;20059;-61
2021/12/16 02:48:40;;;;;;;29.63;7.32;;;;;;;;;;5079252;28;20055;-61
2021/12/16 02:51:09;;;;;;;24.48;5.57;;;;;;;;;;5083601;28;20449;-61
2021/12/16 02:53:37;;;;;;;17.88;6.03;;;;;;;;;;5082643;28;20024;-61
2021/12/16 02:56:04;;;;;;;16.20;6.75;;;;;;;;;;5083528;28;20076;-61
2021/12/16 02:58:30;;;;;;;22.65;7.05;;;;;;;;;;5077779;28;20035;-61
2021/12/16 03:01:00;;;;;;;28.77;9.00;;;;;;;;;;5079491;28;20048;-61
2021/12/16 03:03:28;;;;;;;29.23;8.02;;;;;;;;;;5078575;28;20040;-61
2021/12/16 03:05:54;;;;;;;24.80;8.20;;;;;;;;;;5081316;28;20059;-61
2021/12/16 03:08:20;;;;;;;25.40;7.95;;;;;;;;;;5078024;28;20040;-61
2021/12/16 03:13:26;;;;;;;37.42;7.45;;;;;;;;;;5083979;28;20123;-61
2021/12/16 03:16:06;;;;;;;33.30;7.97;;;;;;;;;;5081926;28;20040;-61
2021/12/16 03:18:52;;;;;;;30.48;8.77;;;;;;;;;;5094535;28;20082;-61
2021/12/16 03:21:26;;;;;;;27.80;9.10;;;;;;;;;;5073981;28;20040;-61
2021/12/16 03:24:09;;;;;;;31.02;9.55;;;;;;;;;;5081003;28;20055;-61
2021/12/16 03:27:06;;;;;;;40.67;11.07;;;;;;;;;;5074193;28;20082;-61
2021/12/16 03:32:32;;;;;;;34.08;9.90;;;;;;;;;;5085358;28;20159;-61
2021/12/16 03:35:13;;;;;;;36.70;10.25;;;;;;;;;;5083190;28;20041;-61
2021/12/16 03:37:40;;;;;;;21.55;8.40;;;;;;;;;;5082349;28;20048;-61
2021/12/16 03:40:09;;;;;;;53.78;10.85;;;;;;;;;;5078714;28;20067;-61
2021/12/16 03:42:38;;;;;;;42.35;9.88;;;;;;;;;;5073818;28;20124;-61
2021/12/16 03:46:24;;;;;;;32.75;9.30;;;;;;;;;;5077631;28;20117;-61
2021/12/16 03:47:56;;;;;;;44.85;11.32;;;;;;;;;;5074006;28;20044;-61
2021/12/16 03:50:22;;;;;;;38.85;9.70;;;;;;;;;;5081100;28;20052;-61
2021/12/16 03:52:49;;;;;;;28.90;8.15;;;;;;;;;;5082804;28;20043;-61
2021/12/16 03:55:16;;;;;;;29.25;8.40;;;;;;;;;;5084541;28;20059;-61
2021/12/16 03:57:44;;;;;;;19.33;6.90;;;;;;;;;;5080391;28;20040;-61
2021/12/16 04:00:13;;;;;;;17.92;6.60;;;;;;;;;;5077521;28;20043;-61
2021/12/16 04:02:40;;;;;;;24.63;7.18;;;;;;;;;;5078507;28;20098;-61
2021/12/16 04:05:07;;;;;;;23.17;6.25;;;;;;;;;;5079807;28;20041;-61
2021/12/16 04:07:34;;;;;;;24.00;6.57;;;;;;;;;;5079182;28;20419;-61
2021/12/16 04:10:01;;;;;;;37.00;6.15;;;;;;;;;;5081545;28;20051;-61
2021/12/16 04:12:28;;;;;;;20.48;6.10;;;;;;;;;;5083288;28;20075;-61
2021/12/16 04:14:56;;;;;;;33.38;7.93;;;;;;;;;;5083358;28;20503;-61
2021/12/16 04:17:24;;;;;;;21.10;7.68;;;;;;;;;;5081739;28;20040;-61
2021/12/16 04:19:51;;;;;;;23.65;6.53;;;;;;;;;;5074837;28;20056;-61
2021/12/16 04:22:27;;;;;;;45.38;10.00;;;;;;;;;;5081150;28;20052;-61
2021/12/16 04:24:54;;;;;;;35.83;10.82;;;;;;;;;;5073973;28;20518;-61
2021/12/16 04:27:20;;;;;;;25.95;9.90;;;;;;;;;;5079605;28;20051;-61
2021/12/16 04:29:48;;;;;;;20.23;8.13;;;;;;;;;;5088188;28;20127;-61
2021/12/16 04:32:15;;;;;;;64.03;9.20;;;;;;;;;;5084681;28;20047;-61
2021/12/16 04:34:41;;;;;;;184.50;12.32;;;;;;;;;;5089035;28;20383;-61
2021/12/16 04:37:07;;;;;;;261.67;14.15;;;;;;;;;;5086983;28;20486;-61
2021/12/16 04:39:36;;;;;;;153.90;10.80;;;;;;;;;;5086297;28;20123;-61
2021/12/16 04:42:02;;;;;;;165.90;11.52;;;;;;;;;;5085813;28;20071;-61
2021/12/16 04:44:29;;;;;;;110.85;8.48;;;;;;;;;;5090611;28;20102;-61
2021/12/16 04:46:56;;;;;;;102.72;10.02;;;;;;;;;;5083737;28;20033;-61
2021/12/16 04:49:22;;;;;;;52.75;7.75;;;;;;;;;;5078311;28;20043;-61
2021/12/16 04:51:50;;;;;;;30.40;6.45;;;;;;;;;;5079909;28;20123;-61
2021/12/16 04:54:19;;;;;;;46.38;7.57;;;;;;;;;;5078294;28;20059;-61
2021/12/16 04:56:45;;;;;;;141.52;9.50;;;;;;;;;;5084908;28;20048;-61
2021/12/16 04:59:13;;;;;;;213.73;12.27;;;;;;;;;;5084728;28;20094;-61
2021/12/16 05:01:42;;;;;;;72.75;7.18;;;;;;;;;;5087113;28;20218;-61
2021/12/16 05:04:09;;;;;;;234.02;11.27;;;;;;;;;;5083938;28;20055;-61
2021/12/16 05:06:35;;;;;;;26.80;7.60;;;;;;;;;;5084596;28;20586;-61
2021/12/16 05:09:03;;;;;;;13.68;6.53;;;;;;;;;;5069847;28;20366;-61
2021/12/16 05:11:30;;;;;;;17.92;6.30;;;;;;;;;;5084275;28;20043;-61
2021/12/16 05:13:58;;;;;;;20.73;6.38;;;;;;;;;;5080603;28;20399;-61
2021/12/16 05:16:24;;;;;;;14.18;6.47;;;;;;;;;;5082844;28;20076;-61
2021/12/16 05:18:53;;;;;;;13.38;5.07;;;;;;;;;;5084819;28;20041;-61
2021/12/16 05:24:17;;;;;;;50.92;6.47;;;;;;;;;;5084979;28;20462;-61
2021/12/16 05:26:44;;;;;;;73.50;6.20;;;;;;;;;;5075256;28;20445;-61
2021/12/16 05:29:11;;;;;;;112.93;7.65;;;;;;;;;;5091674;28;20036;-61
2021/12/16 05:31:37;;;;;;;122.70;8.05;;;;;;;;;;5084332;28;20043;-61
2021/12/16 05:34:04;;;;;;;117.93;7.15;;;;;;;;;;5080966;28;20066;-61
2021/12/16 05:36:31;;;;;;;86.53;7.10;;;;;;;;;;5079557;28;20051;-61
2021/12/16 05:38:58;;;;;;;85.00;7.85;;;;;;;;;;5083052;28;20075;-61
2021/12/16 05:41:24;;;;;;;67.05;6.00;;;;;;;;;;5083262;28;20488;-61
2021/12/16 05:43:51;;;;;;;98.03;7.57;;;;;;;;;;5086361;28;20086;-61
2021/12/16 05:46:18;;;;;;;114.97;7.57;;;;;;;;;;5082625;28;20025;-61
2021/12/16 05:48:45;;;;;;;104.80;8.13;;;;;;;;;;5080497;28;20048;-61
2021/12/16 05:51:15;;;;;;;202.10;8.57;;;;;;;;;;5081919;28;20101;-61
2021/12/16 05:53:43;;;;;;;171.88;7.22;;;;;;;;;;5082158;28;20064;-61
2021/12/16 05:56:10;;;;;;;202.85;8.07;;;;;;;;;;5080212;28;20044;-61
2021/12/16 05:58:37;;;;;;;205.68;8.50;;;;;;;;;;5087749;28;20064;-61
2021/12/16 06:01:07;;;;;;;143.70;6.38;;;;;;;;;;5082382;28;20093;-61
2021/12/16 06:03:33;;;;;;;140.13;6.75;;;;;;;;;;5083590;28;20099;-61
2021/12/16 06:06:00;;;;;;;153.30;7.10;;;;;;;;;;5081819;28;20413;-61
2021/12/16 06:08:27;;;;;;;105.05;5.75;;;;;;;;;;5080870;28;20159;-61
2021/12/16 06:13:22;;;;;;;90.22;4.50;;;;;;;;;;5081759;28;20040;-61
2021/12/16 06:29:34;;;;;;;152.70;10.07;;;;;;;;;;5080225;28;20137;-61
2021/12/16 06:32:00;;;;;;;106.05;6.57;;;;;;;;;;5086280;28;20036;-61
2021/12/16 06:34:27;;;;;;;109.47;7.80;;;;;;;;;;5085872;28;20128;-61
2021/12/16 06:36:54;;;;;;;139.10;9.13;;;;;;;;;;5086019;28;20036;-61
2021/12/16 06:39:20;;;;;;;146.50;8.93;;;;;;;;;;5087489;28;20451;-61
2021/12/16 06:41:47;;;;;;;126.40;8.02;;;;;;;;;;5086637;28;20134;-61
2021/12/16 06:44:19;;;;;;;141.25;7.55;;;;;;;;;;5079844;28;20120;-61
2021/12/16 06:46:47;;;;;;;142.20;6.95;;;;;;;;;;5076780;28;20557;-60
2021/12/16 06:49:16;;;;;;;119.20;4.95;;;;;;;;;;5073829;28;20114;-61
2021/12/16 06:51:52;;;;;;;89.60;5.55;;;;;;;;;;5089092;28;20049;-60
2021/12/16 06:54:25;;;;;;;109.35;6.50;;;;;;;;;;5082686;28;20130;-60
2021/12/16 06:57:03;;;;;;;111.47;5.93;;;;;;;;;;5088326;28;20171;-60
2021/12/16 06:59:35;;;;;;;145.80;7.18;;;;;;;;;;5087480;28;20039;-60
2021/12/16 07:02:08;;;;;;;108.07;6.90;;;;;;;;;;5086808;28;20040;-61
2021/12/16 07:04:35;;;;;;;139.80;6.85;;;;;;;;;;5086165;28;20106;-60
2021/12/16 07:07:05;;;;;;;144.13;6.70;;;;;;;;;;5086942;28;20423;-61
2021/12/16 07:09:31;;;;;;;145.48;6.43;;;;;;;;;;5086086;28;20387;-61
2021/12/16 07:11:59;;;;;;;115.28;6.15;;;;;;;;;;5091835;28;20068;-60
2021/12/16 07:14:35;;;;;;;120.30;7.05;;;;;;;;;;5089715;28;20440;-60
2021/12/16 07:17:04;;;;;;;123.28;7.63;;;;;;;;;;5089971;28;20044;-60
2021/12/16 07:19:30;;;;;;;166.57;8.23;;;;;;;;;;5090718;28;20120;-60
2021/12/16 07:21:57;;;;;;;106.70;6.13;;;;;;;;;;5090485;28;20097;-60
2021/12/16 07:24:23;;;;;;;130.55;7.07;;;;;;;;;;5091635;28;20340;-61
2021/12/16 07:26:49;;;;;;;96.63;7.20;;;;;;;;;;5089759;28;20052;-61
2021/12/16 07:29:15;;;;;;;84.55;5.20;;;;;;;;;;5089490;27;20044;-61
2021/12/16 07:31:42;;;;;;;75.90;5.90;;;;;;;;;;5091520;28;20035;-60
2021/12/16 07:34:09;;;;;;;63.25;7.93;;;;;;;;;;5090017;28;20456;-60
2021/12/16 07:36:36;;;;;;;86.53;6.05;;;;;;;;;;5091223;28;20040;-60
2021/12/16 07:39:04;;;;;;;55.15;6.10;;;;;;;;;;5090831;28;20040;-60
2021/12/16 07:41:33;;;;;;;62.92;6.07;;;;;;;;;;5090011;28;20116;-61
2021/12/16 07:44:10;;;;;;;61.13;5.93;;;;;;;;;;5094031;28;20394;-61
2021/12/16 07:46:38;;;;;;;60.83;6.45;;;;;;;;;;5091679;28;20427;-60
2021/12/16 07:49:06;;;;;;;63.17;6.78;;;;;;;;;;5091984;28;20144;-60
2021/12/16 07:51:32;;;;;;;34.35;7.03;;;;;;;;;;5093415;28;20044;-60
2021/12/16 07:53:58;;;;;;;25.42;7.53;;;;;;;;;;5093943;28;20044;-60
2021/12/16 07:56:25;;;;;;;47.58;8.18;;;;;;;;;;5086419;28;20053;-60
2021/12/16 10:44:34;;;;;;;123.85;30.60;;;;;;;;;;5074751;28;20055;-61
2021/12/16 10:47:09;;;;;;;165.20;34.47;;;;;;;;;;5088532;28;20047;-62
2021/12/16 10:49:44;;;;;;;117.93;30.75;;;;;;;;;;5103347;28;20059;-61
2021/12/16 10:52:12;;;;;;;132.68;32.17;;;;;;;;;;5087691;28;20115;-61
2021/12/16 10:54:42;;;;;;;130.32;33.05;;;;;;;;;;5089478;28;20051;-61
2021/12/16 10:57:11;;;;;;;134.82;33.10;;;;;;;;;;5088835;28;20059;-61
2021/12/16 10:59:53;;;;;;;147.18;31.67;;;;;;;;;;5087912;28;20140;-61
2021/12/16 11:02:22;;;;;;;126.68;31.73;;;;;;;;;;5085427;28;20388;-61
2021/12/16 11:04:51;;;;;;;117.05;31.08;;;;;;;;;;5089310;28;20094;-61
2021/12/16 11:07:27;;;;;;;98.75;30.38;;;;;;;;;;5087601;28;20040;-60
2021/12/16 11:09:55;;;;;;;101.55;28.67;;;;;;;;;;5074670;28;20044;-61
2021/12/16 11:12:23;;;;;;;128.57;29.25;;;;;;;;;;5084277;28;20128;-61
2021/12/16 11:14:52;;;;;;;149.93;32.63;;;;;;;;;;5087764;28;20048;-61
2021/12/16 11:17:19;;;;;;;187.32;34.90;;;;;;;;;;5087339;28;20101;-61
2021/12/16 11:19:48;;;;;;;157.65;35.20;;;;;;;;;;5087271;28;20051;-61
2021/12/16 11:22:16;;;;;;;164.25;32.92;;;;;;;;;;5084394;28;20047;-61
2021/12/16 11:24:43;;;;;;;193.27;35.85;;;;;;;;;;5078884;28;20507;-61
2021/12/16 11:27:21;;;;;;;153.82;36.60;;;;;;;;;;5086881;28;20040;-61
2021/12/16 11:29:48;;;;;;;152.55;34.97;;;;;;;;;;5088636;28;20043;-61
2021/12/16 11:32:33;;;;;;;130.75;34.28;;;;;;;;;;5092016;28;20062;-62
2021/12/16 11:34:59;;;;;;;206.65;39.13;;;;;;;;;;5091558;28;20123;-62
2021/12/16 11:37:25;;;;;;;140.07;34.97;;;;;;;;;;5094615;28;20047;-62
2021/12/16 11:39:51;;;;;;;150.63;36.85;;;;;;;;;;5092528;28;20051;-61
2021/12/16 11:42:26;;;;;;;162.35;38.10;;;;;;;;;;5093660;28;20058;-62
2021/12/16 11:44:52;;;;;;;177.55;38.13;;;;;;;;;;5090486;28;20116;-62
2021/12/16 11:47:22;;;;;;;205.00;37.42;;;;;;;;;;5087375;28;20056;-62
2021/12/16 11:49:50;;;;;;;183.02;37.50;;;;;;;;;;5087094;28;20375;-62
2021/12/16 11:52:19;;;;;;;156.30;37.97;;;;;;;;;;5089316;28;20399;-61
2021/12/16 11:54:48;;;;;;;179.35;39.72;;;;;;;;;;5092811;28;20131;-62
2021/12/16 11:57:16;;;;;;;200.98;41.83;;;;;;;;;;5088007;28;20040;-62
2021/12/16 11:59:46;;;;;;;218.23;42.90;;;;;;;;;;5087473;28;20044;-61
2021/12/16 12:02:21;;;;;;;196.65;40.13;;;;;;;;;;5086409;28;20127;-61
2021/12/16 12:04:47;;;;;;;206.43;42.60;;;;;;;;;;5080230;28;20057;-62
2021/12/16 12:07:16;;;;;;;180.45;39.03;;;;;;;;;;5074421;28;20564;-62
2021/12/16 12:09:44;;;;;;;189.15;40.42;;;;;;;;;;5079374;28;20040;-61
2021/12/16 12:12:11;;;;;;;199.10;39.72;;;;;;;;;;5074902;28;20039;-61
2021/12/16 12:14:38;;;;;;;192.38;40.30;;;;;;;;;;5072812;28;20060;-62
2021/12/16 12:17:06;;;;;;;245.85;44.70;;;;;;;;;;5076857;28;20040;-61
2021/12/16 12:19:32;;;;;;;186.02;40.33;;;;;;;;;;5087953;28;20448;-61
2021/12/16 12:22:00;;;;;;;206.65;40.67;;;;;;;;;;5087460;28;20112;-61
2021/12/16 12:24:32;;;;;;;243.38;44.00;;;;;;;;;;5087214;28;20112;-61
2021/12/16 12:27:00;;;;;;;269.83;44.03;;;;;;;;;;5086545;28;20040;-62
2021/12/16 12:29:35;;;;;;;232.20;44.25;;;;;;;;;;5086348;28;20154;-62
2021/12/16 12:32:13;;;;;;;253.18;45.08;;;;;;;;;;5080246;28;20356;-61
2021/12/16 12:34:42;;;;;;;216.70;41.55;;;;;;;;;;5080465;28;20075;-61
2021/12/16 12:37:10;;;;;;;284.05;43.88;;;;;;;;;;5078287;28;21682;-61
2021/12/16 12:39:39;;;;;;;211.68;34.50;;;;;;;;;;5074953;28;20511;-61
2021/12/16 12:42:06;;;;;;;274.33;40.03;;;;;;;;;;5075960;28;20042;-61
2021/12/16 12:44:32;;;;;;;301.05;44.08;;;;;;;;;;5090621;28;20056;-61
2021/12/16 12:47:01;;;;;;;226.25;37.22;;;;;;;;;;5078058;28;20534;-61
2021/12/16 12:49:29;;;;;;;309.90;40.38;;;;;;;;;;5083749;28;20177;-61
2021/12/16 12:52:04;;;;;;;319.15;39.65;;;;;;;;;;5080672;28;20036;-61
2021/12/16 12:54:31;;;;;;;276.48;37.45;;;;;;;;;;5088355;28;20051;-61
2021/12/16 12:56:59;;;;;;;267.80;37.05;;;;;;;;;;5090087;28;20479;-62
2021/12/16 12:59:35;;;;;;;250.60;34.63;;;;;;;;;;5089877;28;20050;-62
2021/12/16 13:02:12;;;;;;;290.10;37.38;;;;;;;;;;5093404;28;20107;-61
2021/12/16 13:04:46;;;;;;;270.60;35.25;;;;;;;;;;5083936;28;20105;-61
2021/12/16 13:07:13;;;;;;;382.38;46.78;;;;;;;;;;5080987;28;20048;-61
2021/12/16 13:09:42;;;;;;;339.65;43.75;;;;;;;;;;5079747;28;20127;-61
2021/12/16 13:12:32;;;;;;;355.27;42.55;;;;;;;;;;5085824;28;20150;-61
2021/12/16 13:15:08;;;;;;;313.70;42.85;;;;;;;;;;5078287;28;20041;-61
2021/12/16 13:31:04;;;;;;;270.80;43.88;;;;;;;;;;5082674;28;20049;-61
2021/12/16 13:33:55;;;;;;;226.90;40.83;;;;;;;;;;5108063;27;20052;-61
2021/12/16 13:36:39;;;;;;;380.20;48.88;;;;;;;;;;5077058;28;20047;-61
2021/12/16 13:39:09;;;;;;;248.85;44.00;;;;;;;;;;5086346;28;20133;-61
2021/12/16 13:41:36;;;;;;;355.30;47.40;;;;;;;;;;5083113;28;20044;-61
2021/12/16 13:44:09;;;;;;;517.08;60.03;;;;;;;;;;5076850;28;20090;-62
2021/12/16 13:46:56;;;;;;;489.52;56.53;;;;;;;;;;5080796;28;20052;-61
2021/12/16 13:58:16;;;;;;;398.58;51.10;;;;;;;;;;5080244;28;20037;-61
2021/12/16 13:58:19;;;;;;;581.90;65.32;;;;;;;;;;5082823;28;20052;-61
2021/12/16 14:03:46;;;;;;;389.98;55.10;;;;;;;;;;5077315;28;20048;-61
2021/12/16 14:06:22;;;;;;;391.92;54.53;;;;;;;;;;5084933;28;20114;-61
2021/12/16 14:08:50;;;;;;;274.35;47.17;;;;;;;;;;5079909;28;20046;-61
2021/12/16 14:16:56;;;;;;;321.75;50.50;;;;;;;;;;5084020;28;20051;-61
2021/12/16 14:25:24;;;;;;;224.32;38.38;;;;;;;;;;5087272;28;20135;-61
2021/12/16 14:41:41;;;;;;;192.90;35.60;;;;;;;;;;5091490;27;20051;-61
2021/12/16 14:46:44;;;;;;;171.05;33.13;;;;;;;;;;5082909;28;19920;-61
2021/12/16 14:49:10;;;;;;;234.43;38.42;;;;;;;;;;5093057;28;20051;-61
2021/12/16 14:51:36;;;;;;;192.07;38.40;;;;;;;;;;5091641;28;20079;-61
2021/12/16 14:54:03;;;;;;;211.48;41.35;;;;;;;;;;5091712;28;20123;-61
2021/12/16 14:56:32;;;;;;;136.93;34.70;;;;;;;;;;5090087;28;20502;-61
2021/12/16 14:58:59;;;;;;;204.10;44.45;;;;;;;;;;5058936;28;20053;-61
2021/12/16 15:01:29;;;;;;;167.77;39.65;;;;;;;;;;5083507;28;20047;-61
2021/12/16 15:03:55;;;;;;;138.18;37.28;;;;;;;;;;5078437;28;20047;-61
2021/12/16 15:06:29;;;;;;;187.95;41.45;;;;;;;;;;5081270;28;20472;-62
2021/12/16 15:09:11;;;;;;;178.15;40.90;;;;;;;;;;5079514;28;20055;-62
2021/12/16 15:11:48;;;;;;;170.82;43.17;;;;;;;;;;5081597;28;20517;-61
2021/12/16 15:14:29;;;;;;;175.38;41.63;;;;;;;;;;5085963;28;20391;-60
2021/12/16 15:17:07;;;;;;;191.75;43.58;;;;;;;;;;5084654;28;20063;-60
2021/12/16 15:44:09;;;;;;;139.43;38.58;;;;;;;;;;5092100;28;20036;-61
2021/12/16 15:46:36;;;;;;;154.35;39.42;;;;;;;;;;5089685;28;20056;-61
2021/12/16 15:49:03;;;;;;;150.65;37.88;;;;;;;;;;5085524;28;20043;-61
2021/12/16 15:51:29;;;;;;;149.52;39.38;;;;;;;;;;5089693;28;20119;-61
2021/12/16 15:53:58;;;;;;;149.18;37.60;;;;;;;;;;5083582;28;20075;-60
2021/12/16 15:56:29;;;;;;;159.30;40.55;;;;;;;;;;5089631;28;20051;-60
2021/12/16 15:58:58;;;;;;;161.27;38.53;;;;;;;;;;5091316;28;20040;-60
2021/12/16 16:01:27;;;;;;;187.60;39.67;;;;;;;;;;5088729;28;20045;-60
2021/12/16 16:03:53;;;;;;;202.85;38.08;;;;;;;;;;5084469;28;20051;-60
2021/12/16 16:06:21;;;;;;;203.18;39.00;;;;;;;;;;5083308;28;20047;-61
2021/12/16 16:08:49;;;;;;;226.27;36.75;;;;;;;;;;5081379;28;20040;-60
2021/12/16 16:11:17;;;;;;;173.65;31.58;;;;;;;;;;5081459;28;20047;-60
2021/12/16 16:13:48;;;;;;;184.60;30.42;;;;;;;;;;5074422;28;20039;-60
2021/12/16 16:16:16;;;;;;;217.50;32.75;;;;;;;;;;5073231;28;20048;-60
2021/12/16 16:18:53;;;;;;;218.43;31.75;;;;;;;;;;5077027;28;20391;-60
2021/12/16 16:21:23;;;;;;;184.85;28.90;;;;;;;;;;5079436;28;20041;-60
2021/12/16 16:23:53;;;;;;;149.98;26.52;;;;;;;;;;5087400;28;20040;-61
2021/12/16 16:26:19;;;;;;;173.93;23.70;;;;;;;;;;5085043;28;20047;-60
2021/12/16 16:28:46;;;;;;;237.55;27.50;;;;;;;;;;5086518;28;20040;-61
2021/12/16 16:31:14;;;;;;;128.85;20.98;;;;;;;;;;5086128;28;20397;-60
2021/12/16 16:33:40;;;;;;;137.43;20.60;;;;;;;;;;5093766;28;20042;-60
2021/12/16 16:36:09;;;;;;;141.40;20.90;;;;;;;;;;5083990;28;20454;-60
2021/12/16 16:38:43;;;;;;;134.45;21.15;;;;;;;;;;5081649;28;20043;-60
2021/12/16 16:41:11;;;;;;;108.25;18.42;;;;;;;;;;5080886;28;20037;-61
2021/12/16 16:43:39;;;;;;;128.20;18.00;;;;;;;;;;5079542;28;20048;-60
2021/12/16 16:46:09;;;;;;;176.63;21.00;;;;;;;;;;5078396;28;20101;-60
2021/12/16 16:48:52;;;;;;;128.63;18.25;;;;;;;;;;5080303;28;20056;-60
2021/12/16 16:51:26;;;;;;;105.40;17.63;;;;;;;;;;5077366;28;20071;-61
2021/12/16 16:53:52;;;;;;;;;;;;;;;;;;5082797;28;20043;-61
2021/12/16 16:56:33;;;;;;;94.47;15.35;;;;;;;;;;5086225;28;19960;-61
2021/12/16 16:59:03;;;;;;;135.20;16.98;;;;;;;;;;5083353;28;20056;-60
2021/12/16 17:01:30;;;;;;;124.97;14.98;;;;;;;;;;5082352;28;20064;-61
2021/12/16 17:03:56;;;;;;;120.03;16.05;;;;;;;;;;5086289;28;20150;-60
2021/12/16 17:06:23;;;;;;;92.63;15.20;;;;;;;;;;5084188;28;20032;-61
2021/12/16 17:08:49;;;;;;;97.47;14.40;;;;;;;;;;5090669;28;20040;-61
2021/12/16 17:11:20;;;;;;;118.07;15.32;;;;;;;;;;5084620;28;20118;-61
2021/12/16 17:18:49;;;;;;;206.23;20.42;;;;;;;;;;5091521;28;20189;-60
2021/12/16 17:21:19;;;;;;;189.60;19.42;;;;;;;;;;5089729;28;20036;-60
2021/12/16 17:23:49;;;;;;;144.45;18.27;;;;;;;;;;5086352;28;20058;-61
2021/12/16 17:26:20;;;;;;;168.23;17.35;;;;;;;;;;5085836;28;20048;-61
2021/12/16 17:28:51;;;;;;;250.43;22.02;;;;;;;;;;5086869;28;20035;-61
2021/12/16 17:31:28;;;;;;;253.55;23.25;;;;;;;;;;5080038;28;20143;-61
2021/12/16 17:34:04;;;;;;;285.08;23.20;;;;;;;;;;5086300;28;20040;-61
2021/12/16 17:36:32;;;;;;;352.85;23.85;;;;;;;;;;5083155;28;20100;-61
2021/12/16 17:39:07;;;;;;;201.98;20.52;;;;;;;;;;5088918;28;20040;-61
2021/12/16 17:41:34;;;;;;;223.10;19.10;;;;;;;;;;5088774;28;20102;-61
2021/12/16 17:44:03;;;;;;;183.20;17.90;;;;;;;;;;5093158;28;20054;-61
2021/12/16 17:46:30;;;;;;;189.18;19.58;;;;;;;;;;5093993;28;20062;-61
2021/12/16 17:48:56;;;;;;;343.25;25.92;;;;;;;;;;5095308;28;20044;-62
2021/12/16 17:51:25;;;;;;;405.92;27.83;;;;;;;;;;5096259;28;20120;-62
2021/12/16 17:53:53;;;;;;;261.48;22.27;;;;;;;;;;5095313;28;20047;-61
2021/12/16 17:56:21;;;;;;;245.93;21.80;;;;;;;;;;5096637;28;20483;-62
2021/12/16 17:58:49;;;;;;;295.08;23.02;;;;;;;;;;5095223;28;20488;-62
2021/12/16 18:01:18;;;;;;;357.67;26.70;;;;;;;;;;5091749;28;20040;-62
2021/12/16 18:03:48;;;;;;;367.45;25.33;;;;;;;;;;5098691;28;20043;-61
2021/12/16 18:06:18;;;;;;;359.05;27.40;;;;;;;;;;5090420;28;20048;-62
2021/12/16 18:08:46;;;;;;;349.15;25.25;;;;;;;;;;5096656;28;20044;-61
2021/12/16 18:11:17;;;;;;;201.57;24.38;;;;;;;;;;5099647;28;20141;-62
2021/12/16 18:13:45;;;;;;;181.13;21.95;;;;;;;;;;5102293;28;20047;-62
2021/12/16 18:16:17;;;;;;;316.13;27.75;;;;;;;;;;5099205;28;20123;-61
2021/12/16 18:18:44;;;;;;;214.32;21.88;;;;;;;;;;5087427;28;20048;-61
2021/12/16 18:21:10;;;;;;;186.27;23.50;;;;;;;;;;5093154;28;20048;-62
2021/12/16 18:23:37;;;;;;;248.10;29.05;;;;;;;;;;5083293;28;20498;-61
2021/12/16 18:26:06;;;;;;;250.18;26.45;;;;;;;;;;5078706;28;20382;-62
2021/12/16 18:28:34;;;;;;;268.38;27.95;;;;;;;;;;5084469;28;20118;-61
2021/12/16 18:31:04;;;;;;;220.20;27.10;;;;;;;;;;5082314;28;20067;-61
2021/12/16 18:33:33;;;;;;;310.02;31.17;;;;;;;;;;5090210;28;20511;-61
2021/12/16 18:36:01;;;;;;;287.98;30.52;;;;;;;;;;5083425;28;20123;-61
2021/12/16 18:38:30;;;;;;;329.70;32.22;;;;;;;;;;5085412;28;20040;-61
2021/12/16 18:40:57;;;;;;;377.77;34.65;;;;;;;;;;5085491;28;20040;-61
2021/12/16 18:43:25;;;;;;;464.27;38.50;;;;;;;;;;5087732;28;20092;-62
2021/12/16 18:45:52;;;;;;;264.33;28.88;;;;;;;;;;5086447;28;20062;-62
2021/12/16 18:48:30;;;;;;;432.10;35.90;;;;;;;;;;5086736;28;20059;-62
2021/12/16 18:56:14;;;;;;;438.55;40.10;;;;;;;;;;5083963;28;20040;-61
2021/12/16 18:58:41;;;;;;;348.17;35.80;;;;;;;;;;5088359;28;20047;-61
2021/12/16 19:01:10;;;;;;;335.10;32.28;;;;;;;;;;5086374;28;20125;-62
2021/12/16 19:03:36;;;;;;;424.38;40.90;;;;;;;;;;5094130;28;20428;-61
2021/12/16 19:06:03;;;;;;;355.67;36.60;;;;;;;;;;5087318;28;20043;-61
2021/12/16 19:08:29;;;;;;;461.52;40.53;;;;;;;;;;5098213;28;20493;-62
2021/12/16 19:10:56;;;;;;;270.23;33.40;;;;;;;;;;5097670;28;20373;-62
2021/12/16 19:13:31;;;;;;;328.45;32.78;;;;;;;;;;5095614;28;20035;-63
2021/12/16 19:16:00;;;;;;;320.17;31.80;;;;;;;;;;5093827;28;20150;-62
2021/12/16 19:18:27;;;;;;;499.95;42.45;;;;;;;;;;5097070;28;20105;-62
2021/12/16 19:20:53;;;;;;;580.42;44.20;;;;;;;;;;5092943;28;20050;-61
2021/12/16 19:23:21;;;;;;;417.52;35.47;;;;;;;;;;5090141;28;20060;-62
2021/12/16 19:25:49;;;;;;;462.30;37.65;;;;;;;;;;5101140;28;20444;-62
2021/12/16 19:28:15;;;;;;;523.67;38.83;;;;;;;;;;5098305;28;20023;-61
2021/12/16 19:30:43;;;;;;;441.10;36.17;;;;;;;;;;5095960;28;20044;-61
2021/12/16 19:33:10;;;;;;;361.63;30.70;;;;;;;;;;5093243;28;20039;-61
2021/12/16 19:35:37;;;;;;;374.67;31.63;;;;;;;;;;5090719;28;20137;-61
2021/12/16 19:38:04;;;;;;;348.38;30.67;;;;;;;;;;5096439;28;20043;-61
2021/12/16 19:40:31;;;;;;;312.45;25.45;;;;;;;;;;5088330;28;20036;-63
2021/12/16 19:42:59;;;;;;;346.83;27.52;;;;;;;;;;5089817;28;20044;-61
2021/12/16 19:45:28;;;;;;;415.10;29.40;;;;;;;;;;5086861;28;20167;-63
2021/12/16 19:47:54;;;;;;;329.63;29.40;;;;;;;;;;5085362;28;20123;-61
2021/12/16 19:50:22;;;;;;;432.65;30.55;;;;;;;;;;5074966;28;20127;-62
2021/12/16 19:52:49;;;;;;;370.92;28.83;;;;;;;;;;5074763;28;20748;-62
2021/12/16 19:55:15;;;;;;;368.75;28.40;;;;;;;;;;5082844;28;20048;-62
2021/12/16 19:57:46;;;;;;;374.50;31.55;;;;;;;;;;5086306;28;20028;-61
2021/12/16 20:00:15;;;;;;;393.10;28.88;;;;;;;;;;5087252;28;20083;-62
2021/12/16 20:02:41;;;;;;;421.75;28.90;;;;;;;;;;5086089;28;20039;-62
2021/12/16 20:05:08;;;;;;;352.73;28.67;;;;;;;;;;5089232;28;20194;-61
2021/12/16 20:07:35;;;;;;;369.33;30.02;;;;;;;;;;5087834;28;20372;-62
2021/12/16 20:10:02;;;;;;;301.88;27.02;;;;;;;;;;5090222;28;20702;-62
2021/12/16 20:12:31;;;;;;;344.15;29.27;;;;;;;;;;5084747;28;20044;-61
2021/12/16 20:15:00;;;;;;;383.05;28.35;;;;;;;;;;5082485;28;20119;-61
2021/12/16 20:17:27;;;;;;;323.23;28.45;;;;;;;;;;5088765;28;20084;-62
2021/12/16 20:19:55;;;;;;;393.50;29.63;;;;;;;;;;5086017;28;20032;-61
2021/12/16 20:22:24;;;;;;;338.95;28.60;;;;;;;;;;5085037;28;20107;-62
2021/12/16 20:24:52;;;;;;;322.95;26.65;;;;;;;;;;5084850;28;20088;-62
2021/12/16 20:27:18;;;;;;;267.52;27.17;;;;;;;;;;5089137;28;20059;-62
2021/12/16 20:29:47;;;;;;;356.20;31.45;;;;;;;;;;5082577;28;20055;-62
2021/12/16 20:32:16;;;;;;;314.80;29.40;;;;;;;;;;5081579;28;20060;-61
2021/12/16 20:34:45;;;;;;;330.92;28.70;;;;;;;;;;5087245;28;20058;-61